createdAt,value
2018-12-08T00:02:31.335Z,8.22
2018-12-08T00:08:26.317Z,7.83
2018-12-08T00:14:21.347Z,7.92
2018-12-08T00:20:16.333Z,6.81
2018-12-08T00:26:11.335Z,6.29
2018-12-08T00:32:06.333Z,6.73
2018-12-08T00:38:01.410Z,7.18
2018-12-08T00:43:56.326Z,5
2018-12-08T00:49:51.326Z,4.52
2018-12-08T00:55:46.346Z,3.33
2018-12-08T01:01:41.405Z,3.69
2018-12-08T01:07:36.409Z,2.72
2018-12-08T01:13:31.383Z,2.22
2018-12-08T01:19:26.347Z,1.91
2018-12-08T01:25:21.346Z,1.56
2018-12-08T01:31:16.349Z,2.34
2018-12-08T01:37:11.358Z,2.45
2018-12-08T01:43:06.347Z,2.93
2018-12-08T01:49:01.363Z,3.18
2018-12-08T01:54:56.363Z,2.08
2018-12-08T02:00:51.364Z,2.75
2018-12-08T02:06:46.371Z,1.53
2018-12-08T02:12:41.371Z,1.76
2018-12-08T02:18:36.356Z,1.8
2018-12-08T02:24:31.387Z,2.24
2018-12-08T02:30:26.386Z,2.14
2018-12-08T02:36:21.378Z,2.45
2018-12-08T02:42:16.379Z,2.15
2018-12-08T02:48:11.430Z,1.55
2018-12-08T02:54:06.387Z,1.48
2018-12-08T03:00:01.384Z,1.32
2018-12-08T03:05:56.402Z,1.97
2018-12-08T03:11:51.394Z,1.6
2018-12-08T03:17:46.416Z,1.68
2018-12-08T03:23:41.389Z,1.99
2018-12-08T03:29:36.410Z,1.7
2018-12-08T03:35:31.475Z,1.85
2018-12-08T03:41:26.428Z,2.07
2018-12-08T03:47:21.432Z,2.13
2018-12-08T03:53:16.439Z,1.67
2018-12-08T03:59:11.419Z,1.79
2018-12-08T04:05:06.418Z,1.92
2018-12-08T04:11:01.453Z,1.63
2018-12-08T04:16:56.439Z,1.67
2018-12-08T04:22:51.439Z,1.63
2018-12-08T04:28:46.454Z,1.78
2018-12-08T04:34:41.457Z,1.58
2018-12-08T04:40:36.425Z,1.38
2018-12-08T04:46:31.431Z,1.59
2018-12-08T04:52:26.435Z,1.69
2018-12-08T04:58:21.490Z,1.29
2018-12-08T05:04:16.469Z,0.52
2018-12-08T05:10:11.483Z,0.4
2018-12-08T05:16:06.459Z,0.68
2018-12-08T05:22:01.454Z,0.58
2018-12-08T05:27:56.466Z,1.37
2018-12-08T05:33:51.461Z,0.77
2018-12-08T05:39:46.463Z,0.52
2018-12-08T05:45:41.470Z,0.5
2018-12-08T05:51:36.480Z,0.78
2018-12-08T05:57:31.485Z,0.68
2018-12-08T06:03:26.501Z,0.86
2018-12-08T06:09:21.483Z,2.09
2018-12-08T06:15:16.515Z,1.08
2018-12-08T06:21:11.496Z,0.78
2018-12-08T06:27:06.510Z,1.15
2018-12-08T06:33:01.604Z,0.7
2018-12-08T06:38:56.492Z,0.67
2018-12-08T06:44:51.522Z,0.98
2018-12-08T06:50:46.521Z,1.56
2018-12-08T06:56:41.496Z,2.28
2018-12-08T07:02:36.515Z,2.37
2018-12-08T07:08:31.517Z,1.4
2018-12-08T07:14:26.547Z,0.91
2018-12-08T07:20:21.573Z,0.93
2018-12-08T07:26:16.548Z,1.69
2018-12-08T07:32:11.609Z,1.31
2018-12-08T07:38:06.547Z,1.08
2018-12-08T07:44:01.557Z,1.11
2018-12-08T07:49:56.529Z,1.27
2018-12-08T07:55:51.551Z,2.07
2018-12-08T08:01:46.551Z,2.24
2018-12-08T08:07:41.585Z,4.24
2018-12-08T08:13:36.637Z,3.09
2018-12-08T08:19:31.544Z,4.02
2018-12-08T08:25:26.547Z,2.78
2018-12-08T08:31:21.550Z,2.77
2018-12-08T08:37:16.599Z,1.96
2018-12-08T08:43:11.574Z,2.62
2018-12-08T08:49:06.617Z,3.44
2018-12-08T08:55:01.555Z,2.91
2018-12-08T09:00:56.574Z,2.34
2018-12-08T09:06:51.676Z,2.49
2018-12-08T09:12:46.589Z,2.51
2018-12-08T09:18:41.581Z,2.11
2018-12-08T09:24:36.574Z,1.38
2018-12-08T09:30:31.585Z,1.33
2018-12-08T09:36:26.594Z,1.19
2018-12-08T09:42:21.576Z,0.62
2018-12-08T09:48:16.597Z,2.97
2018-12-08T09:54:11.618Z,1.97
2018-12-08T10:00:06.608Z,1.92
2018-12-08T10:06:01.618Z,2.55
2018-12-08T10:11:56.619Z,1.99
2018-12-08T10:17:51.622Z,3.05
2018-12-08T10:23:46.613Z,1.86
2018-12-08T10:29:41.624Z,1.92
2018-12-08T10:35:36.639Z,1.94
2018-12-08T10:41:31.712Z,2.47
2018-12-08T10:47:26.622Z,2.53
2018-12-08T10:53:21.614Z,2.54
2018-12-08T10:59:16.626Z,2
2018-12-08T11:05:11.668Z,1.85
2018-12-08T11:11:06.643Z,2.12
2018-12-08T11:17:01.658Z,2.53
2018-12-08T11:22:56.683Z,2.51
2018-12-08T11:28:51.660Z,2.97
2018-12-08T11:34:46.657Z,2.39
2018-12-08T11:40:41.659Z,2.57
2018-12-08T11:46:36.678Z,2.84
2018-12-08T11:52:31.657Z,2.39
2018-12-08T11:58:26.667Z,1.84
2018-12-08T12:04:21.660Z,1.6
2018-12-08T12:10:16.670Z,1.5
2018-12-08T12:16:11.691Z,0.94
2018-12-08T12:22:06.670Z,1
2018-12-08T12:28:01.676Z,0.81
2018-12-08T12:33:56.691Z,0.74
2018-12-08T12:39:51.708Z,7.02
2018-12-08T12:45:46.712Z,5.65
2018-12-08T12:51:41.702Z,2.21
2018-12-08T12:57:36.693Z,8.13
2018-12-08T13:03:31.712Z,10.39
2018-12-08T13:09:26.689Z,7.25
2018-12-08T13:15:21.721Z,5.94
2018-12-08T13:21:16.720Z,2.53
2018-12-08T13:27:11.721Z,1.36
2018-12-08T13:33:06.718Z,6.76
2018-12-08T13:39:01.717Z,1.27
2018-12-08T13:44:56.731Z,1.04
2018-12-08T13:50:51.716Z,0.92
2018-12-08T13:56:46.759Z,1.03
2018-12-08T14:02:41.736Z,1.08
2018-12-08T14:08:36.764Z,1.66
2018-12-08T14:14:31.756Z,1.14
2018-12-08T14:20:26.759Z,0.91
2018-12-08T14:26:21.752Z,1.02
2018-12-08T14:32:16.741Z,0.99
2018-12-08T14:38:11.755Z,1.29
2018-12-08T14:44:06.764Z,1.36
2018-12-08T14:50:01.796Z,8.24
2018-12-08T14:55:56.754Z,2.6
2018-12-08T15:01:51.786Z,6.98
2018-12-08T15:07:46.774Z,3.49
2018-12-08T15:13:41.767Z,1.84
2018-12-08T15:19:36.762Z,3
2018-12-08T15:25:31.788Z,1.99
2018-12-08T15:31:26.770Z,2.37
2018-12-08T15:37:21.793Z,2.41
2018-12-08T15:43:16.790Z,4.92
2018-12-08T15:49:11.796Z,5.77
2018-12-08T15:55:06.805Z,4.6
2018-12-08T16:01:01.784Z,3.1
2018-12-08T16:06:56.838Z,2.26
2018-12-08T16:12:51.815Z,16.26
2018-12-08T16:18:46.814Z,5.43
2018-12-08T16:24:41.813Z,12.42
2018-12-08T16:30:36.830Z,6.93
2018-12-08T16:36:31.807Z,11.1
2018-12-08T16:42:26.838Z,11.59
2018-12-08T16:48:21.822Z,9.81
2018-12-08T16:54:16.822Z,5.5
2018-12-08T17:00:11.841Z,5.67
2018-12-08T17:06:06.829Z,8.32
2018-12-08T17:12:01.862Z,7.27
2018-12-08T17:17:56.859Z,6.42
2018-12-08T17:23:51.830Z,13.45
2018-12-08T17:29:46.866Z,14.53
2018-12-08T17:35:41.847Z,9.81
2018-12-08T17:41:36.853Z,15.01
2018-12-08T17:47:31.853Z,22.6
2018-12-08T17:53:26.906Z,20.47
2018-12-08T17:59:21.880Z,15.5
2018-12-08T18:05:16.916Z,6.84
2018-12-08T18:11:11.906Z,3.58
2018-12-08T18:17:06.893Z,3.13
2018-12-08T18:23:01.896Z,5.99
2018-12-08T18:28:56.941Z,18.24
2018-12-08T18:34:51.914Z,19.77
2018-12-08T18:40:46.871Z,19.35
2018-12-08T18:46:41.884Z,11.07
2018-12-08T18:52:36.965Z,12.57
2018-12-08T18:58:31.976Z,16.58
2018-12-08T19:04:26.918Z,18.4
2018-12-08T19:10:21.903Z,19.4
2018-12-08T19:16:16.917Z,24.23
2018-12-08T19:22:11.948Z,17.09
2018-12-08T19:28:06.919Z,19.33
2018-12-08T19:34:01.916Z,20.23
2018-12-08T19:39:56.941Z,16.87
2018-12-08T19:45:51.907Z,17.18
2018-12-08T19:51:46.923Z,9.53
2018-12-08T19:57:41.919Z,5.17
2018-12-08T20:03:36.927Z,6.95
2018-12-08T20:09:31.931Z,14.51
2018-12-08T20:15:26.935Z,11.24
2018-12-08T20:21:21.926Z,12.65
2018-12-08T20:27:16.969Z,13.93
2018-12-08T20:33:11.955Z,12
2018-12-08T20:39:06.969Z,8.3
2018-12-08T20:45:02.054Z,7.89
2018-12-08T20:50:56.990Z,10.01
2018-12-08T20:56:51.967Z,8.62
2018-12-08T21:02:46.988Z,8.18
2018-12-08T21:08:41.961Z,8.52
2018-12-08T21:14:36.966Z,11.17
2018-12-08T21:20:31.961Z,16.93
2018-12-08T21:26:26.981Z,17.67
2018-12-08T21:32:21.990Z,12.67
2018-12-08T21:38:17.005Z,14.39
2018-12-08T21:44:11.963Z,14.94
2018-12-08T21:50:07.005Z,13.68
2018-12-08T21:56:01.990Z,13.41
2018-12-08T22:01:57.000Z,10.83
2018-12-08T22:07:52.006Z,8.59
2018-12-08T22:13:47.023Z,8.07
2018-12-08T22:19:41.993Z,8.46
2018-12-08T22:25:37.008Z,9.67
2018-12-08T22:31:32.004Z,6.52
2018-12-08T22:37:29.057Z,5.67
2018-12-08T22:43:21.996Z,4.82
2018-12-08T22:49:17.000Z,5.51
2018-12-08T22:55:12.004Z,7.22
2018-12-08T23:01:07.028Z,8.72
2018-12-08T23:07:02.021Z,8.29
2018-12-08T23:12:57.016Z,8.81
2018-12-08T23:18:52.031Z,8.52
2018-12-08T23:24:47.016Z,9.27
2018-12-08T23:30:42.037Z,10.2
2018-12-08T23:36:37.042Z,9.19
2018-12-08T23:42:32.067Z,8.2
2018-12-08T23:48:27.092Z,6.57
2018-12-08T23:54:22.082Z,16.92
